createdAt,value
2023-02-23T00:00:21.025Z,7.03
2023-02-23T00:03:33.753Z,6.82
2023-02-23T00:06:46.187Z,6.70
2023-02-23T00:09:58.924Z,6.78
2023-02-23T00:13:11.221Z,6.82
2023-02-23T00:16:24.906Z,7.68
2023-02-23T00:19:37.860Z,7.57
2023-02-23T00:22:51.455Z,7.80
2023-02-23T00:26:04.474Z,7.47
2023-02-23T00:29:22.066Z,7.35
2023-02-23T00:35:47.817Z,6.35
2023-02-23T00:39:02.022Z,7.43
2023-02-23T00:42:15.533Z,7.65
2023-02-23T00:45:27.848Z,7.87
2023-02-23T00:48:40.449Z,6.80
2023-02-23T00:51:53.083Z,8.02
2023-02-23T00:55:13.322Z,7.53
2023-02-23T00:58:26.146Z,7.05
2023-02-23T01:01:39.118Z,7.70
2023-02-23T01:04:52.813Z,7.53
2023-02-23T01:08:09.404Z,6.65
2023-02-23T01:11:22.967Z,6.78
2023-02-23T01:14:35.818Z,6.60
2023-02-23T01:17:49.776Z,6.87
2023-02-23T01:21:03.091Z,6.75
2023-02-23T01:24:15.412Z,6.65
2023-02-23T01:27:29.293Z,6.25
2023-02-23T01:30:41.793Z,6.62
2023-02-23T01:33:58.430Z,6.28
2023-02-23T01:37:10.759Z,6.20
2023-02-23T01:40:29.866Z,6.53
2023-02-23T01:44:14.319Z,6.40
2023-02-23T01:47:27.334Z,6.22
2023-02-23T01:50:57.065Z,6.93
2023-02-23T01:54:14.512Z,6.28
2023-02-23T01:57:27.388Z,6.70
2023-02-23T02:00:40.242Z,7.35
2023-02-23T02:03:57.908Z,6.70
2023-02-23T02:10:39.569Z,6.95
2023-02-23T02:14:13.933Z,6.72
2023-02-23T02:17:41.717Z,6.55
2023-02-23T02:21:06.061Z,7.43
2023-02-23T02:24:40.407Z,6.45
2023-02-23T02:28:30.235Z,6.35
2023-02-23T02:32:02.682Z,6.22
2023-02-23T02:35:46.988Z,7.28
2023-02-23T02:39:10.553Z,7.40
2023-02-23T02:42:30.153Z,6.85
2023-02-23T02:45:45.751Z,6.40
2023-02-23T02:49:02.662Z,6.37
2023-02-23T02:52:17.785Z,6.60
2023-02-23T02:55:34.444Z,7.15
2023-02-23T02:58:47.344Z,5.82
2023-02-23T03:02:18.570Z,6.78
2023-02-23T03:06:00.294Z,6.40
2023-02-23T03:09:39.391Z,6.45
2023-02-23T03:13:13.765Z,6.50
2023-02-23T03:17:13.288Z,6.45
2023-02-23T03:20:53.648Z,7.37
2023-02-23T03:24:30.520Z,6.95
2023-02-23T03:28:13.716Z,8.00
2023-02-23T03:31:59.605Z,7.05
2023-02-23T03:35:37.160Z,7.22
2023-02-23T03:39:15.204Z,7.15
2023-02-23T03:42:49.021Z,6.87
2023-02-23T03:46:19.972Z,7.07
2023-02-23T03:49:56.553Z,7.43
2023-02-23T03:53:27.516Z,7.53
2023-02-23T03:57:00.164Z,6.40
2023-02-23T04:00:34.336Z,7.90
2023-02-23T04:04:05.460Z,7.18
2023-02-23T04:07:37.791Z,7.05
2023-02-23T04:11:10.490Z,7.05
2023-02-23T04:14:44.821Z,7.37
2023-02-23T04:17:57.458Z,7.43
2023-02-23T04:21:09.847Z,7.47
2023-02-23T04:24:22.522Z,6.85
2023-02-23T04:27:36.123Z,6.87
2023-02-23T04:30:48.790Z,6.87
2023-02-23T04:34:01.196Z,7.32
2023-02-23T04:37:13.844Z,7.57
2023-02-23T04:40:26.545Z,6.90
2023-02-23T04:43:39.211Z,6.95
2023-02-23T04:46:51.565Z,7.82
2023-02-23T04:50:04.548Z,7.15
2023-02-23T04:53:16.869Z,7.87
2023-02-23T04:56:29.747Z,6.68
2023-02-23T04:59:42.528Z,6.53
2023-02-23T05:02:56.045Z,7.93
2023-02-23T05:06:08.357Z,7.20
2023-02-23T05:09:20.971Z,7.85
2023-02-23T05:12:33.357Z,6.87
2023-02-23T05:15:46.136Z,7.20
2023-02-23T05:18:58.515Z,8.18
2023-02-23T05:22:12.674Z,7.93
2023-02-23T05:25:25.490Z,8.27
2023-02-23T05:28:38.728Z,8.55
2023-02-23T05:31:51.205Z,8.48
2023-02-23T05:35:03.984Z,9.05
2023-02-23T05:38:16.380Z,9.95
2023-02-23T05:41:29.016Z,9.07
2023-02-23T05:44:41.377Z,8.45
2023-02-23T05:47:54.013Z,7.43
2023-02-23T05:51:11.644Z,7.90
2023-02-23T05:54:24.300Z,8.45
2023-02-23T05:57:36.673Z,7.37
2023-02-23T06:00:49.288Z,7.53
2023-02-23T06:04:02.424Z,7.65
2023-02-23T06:07:15.970Z,7.70
2023-02-23T06:10:28.610Z,8.40
2023-02-23T06:13:41.296Z,8.27
2023-02-23T06:16:53.910Z,7.72
2023-02-23T06:20:07.322Z,8.23
2023-02-23T06:23:20.062Z,7.30
2023-02-23T06:26:33.334Z,7.80
2023-02-23T06:29:45.928Z,7.68
2023-02-23T06:32:58.265Z,8.18
2023-02-23T06:36:11.001Z,8.95
2023-02-23T06:39:23.352Z,9.48
2023-02-23T06:42:36.760Z,11.60
2023-02-23T06:45:49.145Z,8.10
2023-02-23T06:49:01.945Z,8.40
2023-02-23T06:52:14.570Z,8.35
2023-02-23T06:55:27.304Z,8.02
2023-02-23T06:58:40.606Z,7.55
2023-02-23T07:01:53.290Z,8.15
2023-02-23T07:05:05.803Z,7.97
2023-02-23T07:08:18.523Z,8.10
2023-02-23T07:11:30.850Z,7.43
2023-02-23T07:14:43.500Z,7.53
2023-02-23T07:17:56.867Z,8.10
2023-02-23T07:21:09.464Z,7.50
2023-02-23T07:24:21.989Z,7.72
2023-02-23T07:27:34.975Z,7.12
2023-02-23T07:30:47.722Z,7.32
2023-02-23T07:34:00.337Z,7.35
2023-02-23T07:37:12.718Z,7.82
2023-02-23T07:40:26.233Z,7.37
2023-02-23T07:43:38.835Z,7.75
2023-02-23T07:46:53.130Z,7.57
2023-02-23T07:50:09.836Z,6.97
2023-02-23T07:53:22.434Z,6.60
2023-02-23T07:56:35.421Z,7.40
2023-02-23T07:59:48.589Z,6.87
2023-02-23T08:03:01.456Z,7.65
2023-02-23T08:06:14.101Z,7.87
2023-02-23T08:09:26.429Z,7.78
2023-02-23T08:12:39.199Z,6.70
2023-02-23T08:15:51.548Z,7.22
2023-02-23T08:19:04.264Z,6.65
2023-02-23T08:22:16.568Z,7.32
2023-02-23T08:25:31.841Z,6.43
2023-02-23T08:28:45.887Z,6.75
2023-02-23T08:31:58.699Z,6.30
2023-02-23T08:35:11.181Z,7.00
2023-02-23T08:38:23.776Z,6.57
2023-02-23T08:41:36.153Z,6.15
2023-02-23T08:44:51.573Z,6.90
2023-02-23T08:48:04.048Z,6.47
2023-02-23T08:51:16.900Z,7.12
2023-02-23T08:54:29.381Z,6.65
2023-02-23T08:57:42.020Z,6.18
2023-02-23T09:00:54.383Z,7.10
2023-02-23T09:04:06.997Z,6.57
2023-02-23T09:07:22.657Z,6.37
2023-02-23T09:10:35.791Z,6.30
2023-02-23T09:13:48.148Z,6.37
2023-02-23T09:17:00.781Z,6.45
2023-02-23T09:20:15.764Z,7.30
2023-02-23T09:23:29.500Z,6.80
2023-02-23T09:26:43.529Z,6.80
2023-02-23T09:29:57.584Z,6.43
2023-02-23T09:33:10.030Z,6.90
2023-02-23T09:36:24.225Z,6.60
2023-02-23T09:39:38.947Z,7.22
2023-02-23T09:43:02.550Z,7.00
2023-02-23T09:47:04.663Z,6.68
2023-02-23T09:50:22.670Z,7.93
2023-02-23T09:53:41.595Z,7.93
2023-02-23T09:56:56.393Z,6.70
2023-02-23T10:00:27.460Z,7.60
2023-02-23T10:03:46.771Z,6.70
2023-02-23T10:07:06.630Z,7.10
2023-02-23T10:10:38.171Z,6.90
2023-02-23T10:14:18.839Z,7.55
2023-02-23T10:18:15.998Z,7.32
2023-02-23T10:21:36.178Z,7.03
2023-02-23T10:25:01.707Z,6.45
2023-02-23T10:28:20.235Z,6.30
2023-02-23T10:31:43.829Z,6.25
2023-02-23T10:34:56.808Z,6.85
2023-02-23T10:38:16.348Z,6.47
2023-02-23T10:41:29.470Z,6.87
2023-02-23T10:44:43.551Z,7.47
2023-02-23T10:47:55.780Z,7.15
2023-02-23T10:51:19.125Z,6.55
2023-02-23T10:54:39.568Z,6.60
2023-02-23T10:58:01.827Z,6.10
2023-02-23T11:01:15.929Z,6.35
2023-02-23T11:04:33.258Z,6.10
2023-02-23T11:07:45.586Z,6.45
2023-02-23T11:11:14.650Z,6.93
2023-02-23T11:14:30.518Z,6.35
2023-02-23T11:17:43.129Z,6.25
2023-02-23T11:20:55.564Z,6.22
2023-02-23T11:24:15.481Z,6.10
2023-02-23T11:27:27.854Z,5.60
2023-02-23T11:30:42.951Z,6.28
2023-02-23T11:33:55.580Z,5.57
2023-02-23T11:37:23.134Z,5.37
2023-02-23T11:40:35.508Z,6.03
2023-02-23T11:43:52.039Z,6.43
2023-02-23T11:47:04.437Z,6.57
2023-02-23T11:50:30.335Z,6.68
2023-02-23T11:53:45.324Z,6.32
2023-02-23T11:56:58.650Z,6.37
2023-02-23T12:00:22.752Z,7.95
2023-02-23T12:03:35.399Z,8.15
2023-02-23T12:06:47.750Z,6.40
2023-02-23T12:10:26.876Z,6.10
2023-02-23T12:13:46.127Z,6.97
2023-02-23T12:17:05.331Z,6.87
2023-02-23T12:20:26.978Z,6.82
2023-02-23T12:23:39.991Z,6.43
2023-02-23T12:26:59.141Z,6.53
2023-02-23T12:30:35.748Z,6.25
2023-02-23T12:33:50.631Z,6.60
2023-02-23T12:37:18.636Z,8.52
2023-02-23T12:43:51.628Z,7.32
2023-02-23T12:47:41.218Z,6.78
2023-02-23T12:50:55.792Z,6.20
2023-02-23T12:54:09.724Z,6.20
2023-02-23T12:57:52.265Z,6.45
2023-02-23T13:01:22.064Z,6.05
2023-02-23T13:04:47.356Z,6.43
2023-02-23T13:08:13.263Z,6.05
2023-02-23T13:11:41.557Z,6.17
2023-02-23T13:18:45.152Z,6.10
2023-02-23T13:22:32.289Z,6.33
2023-02-23T13:25:55.621Z,6.07
2023-02-23T13:29:45.790Z,5.20
2023-02-23T13:33:02.394Z,5.40
2023-02-23T13:36:14.729Z,5.32
2023-02-23T13:39:52.907Z,5.80
2023-02-23T13:43:30.220Z,5.20
2023-02-23T13:46:59.616Z,5.80
2023-02-23T13:50:22.582Z,5.97
2023-02-23T13:53:47.095Z,5.97
2023-02-23T13:57:01.396Z,6.00
2023-02-23T14:00:20.513Z,6.72
2023-02-23T14:03:35.544Z,5.72
2023-02-23T14:07:15.280Z,6.12
2023-02-23T14:10:41.406Z,5.93
2023-02-23T14:14:01.840Z,6.57
2023-02-23T14:17:14.374Z,5.70
2023-02-23T14:20:42.999Z,5.85
2023-02-23T14:24:21.252Z,6.15
2023-02-23T14:27:41.461Z,6.30
2023-02-23T14:31:13.014Z,6.90
2023-02-23T14:34:49.545Z,6.25
2023-02-23T14:38:10.984Z,7.22
2023-02-23T14:41:24.571Z,6.03
2023-02-23T14:44:41.326Z,6.78
2023-02-23T14:47:55.872Z,6.07
2023-02-23T14:51:20.607Z,6.37
2023-02-23T14:54:37.010Z,5.85
2023-02-23T14:57:49.984Z,6.22
2023-02-23T15:01:02.356Z,6.05
2023-02-23T15:04:18.034Z,6.18
2023-02-23T15:07:39.543Z,6.60
2023-02-23T15:11:12.111Z,6.40
2023-02-23T15:14:28.586Z,5.75
2023-02-23T15:17:42.535Z,5.50
2023-02-23T15:20:54.989Z,5.05
2023-02-23T15:24:13.392Z,5.53
2023-02-23T15:27:30.150Z,6.57
2023-02-23T15:30:47.330Z,7.97
2023-02-23T15:33:59.649Z,13.77
2023-02-23T15:37:20.064Z,15.15
2023-02-23T15:40:33.815Z,13.52
2023-02-23T15:43:46.455Z,10.10
2023-02-23T15:47:00.442Z,10.25
2023-02-23T15:50:35.990Z,10.30
2023-02-23T15:53:48.736Z,8.52
2023-02-23T15:57:14.067Z,9.88
2023-02-23T16:00:40.228Z,10.27
2023-02-23T16:04:09.378Z,9.18
2023-02-23T16:07:23.597Z,10.82
2023-02-23T16:10:41.795Z,10.00
2023-02-23T16:13:54.185Z,10.00
2023-02-23T16:17:11.538Z,10.30
2023-02-23T16:20:35.101Z,10.75
2023-02-23T16:23:49.273Z,10.10
2023-02-23T16:27:02.129Z,9.85
2023-02-23T16:30:23.515Z,9.73
2023-02-23T16:33:48.568Z,10.77
2023-02-23T16:37:15.777Z,9.80
2023-02-23T16:40:28.201Z,10.45
2023-02-23T16:43:40.766Z,10.10
2023-02-23T16:47:03.565Z,11.18
2023-02-23T16:50:20.345Z,13.52
2023-02-23T16:53:33.019Z,28.70
2023-02-23T16:56:46.441Z,24.63
2023-02-23T16:59:58.908Z,23.17
2023-02-23T17:03:25.511Z,24.40
2023-02-23T17:06:38.347Z,23.90
2023-02-23T17:09:50.985Z,20.05
2023-02-23T17:13:08.251Z,17.12
2023-02-23T17:16:21.200Z,23.25
2023-02-23T17:19:33.797Z,19.77
2023-02-23T17:22:46.400Z,16.83
2023-02-23T17:25:58.969Z,19.17
2023-02-23T17:29:11.671Z,18.33
2023-02-23T17:32:24.373Z,16.90
2023-02-23T17:35:37.593Z,22.65
2023-02-23T17:38:49.933Z,21.40
2023-02-23T17:42:02.531Z,22.95
2023-02-23T17:45:14.862Z,25.98
2023-02-23T17:48:27.880Z,28.62
2023-02-23T17:51:40.520Z,26.20
2023-02-23T17:54:54.503Z,27.65
2023-02-23T17:58:06.824Z,23.95
2023-02-23T18:01:19.998Z,19.70
2023-02-23T18:04:32.858Z,17.20
2023-02-23T18:07:48.289Z,16.73
2023-02-23T18:11:01.309Z,15.48
2023-02-23T18:14:14.455Z,14.32
2023-02-23T18:17:27.144Z,15.25
2023-02-23T18:20:39.478Z,15.38
2023-02-23T18:23:52.144Z,15.38
2023-02-23T18:27:04.594Z,15.70
2023-02-23T18:30:17.295Z,15.18
2023-02-23T18:33:31.506Z,17.08
2023-02-23T18:36:44.167Z,18.30
2023-02-23T18:39:57.867Z,18.75
2023-02-23T18:43:11.119Z,19.17
2023-02-23T18:46:23.498Z,19.77
2023-02-23T18:49:37.002Z,18.90
2023-02-23T18:52:50.917Z,19.20
2023-02-23T18:56:05.716Z,18.92
2023-02-23T18:59:18.105Z,16.87
2023-02-23T19:02:30.718Z,17.95
2023-02-23T19:05:52.870Z,16.83
2023-02-23T19:09:09.760Z,13.48
2023-02-23T19:12:22.164Z,12.07
2023-02-23T19:15:35.448Z,12.80
2023-02-23T19:18:47.978Z,12.20
2023-02-23T19:22:00.580Z,12.02
2023-02-23T19:25:14.507Z,10.88
2023-02-23T19:28:27.366Z,9.73
2023-02-23T19:31:39.837Z,10.15
2023-02-23T19:34:52.580Z,9.43
2023-02-23T19:38:04.895Z,9.70
2023-02-23T19:41:20.843Z,10.65
2023-02-23T19:44:34.026Z,10.43
2023-02-23T19:47:46.805Z,10.02
2023-02-23T19:50:59.165Z,10.02
2023-02-23T19:54:11.796Z,9.27
2023-02-23T19:57:24.172Z,9.43
2023-02-23T20:00:36.796Z,9.07
2023-02-23T20:03:55.344Z,9.65
2023-02-23T20:07:09.924Z,9.45
2023-02-23T20:10:25.842Z,8.73
2023-02-23T20:13:39.139Z,11.80
2023-02-23T20:16:51.900Z,10.77
2023-02-23T20:20:06.298Z,10.30
2023-02-23T20:23:18.951Z,9.85
2023-02-23T20:26:34.269Z,9.90
2023-02-23T20:29:48.102Z,9.82
2023-02-23T20:33:02.465Z,10.10
2023-02-23T20:36:15.109Z,10.30
2023-02-23T20:39:27.515Z,10.82
2023-02-23T20:42:41.676Z,11.57
2023-02-23T20:45:54.849Z,11.43
2023-02-23T20:49:11.242Z,12.45
2023-02-23T20:52:23.658Z,13.13
2023-02-23T20:55:36.328Z,11.35
2023-02-23T20:58:48.681Z,9.88
2023-02-23T21:02:01.744Z,10.40
2023-02-23T21:05:14.566Z,10.35
2023-02-23T21:08:28.785Z,10.63
2023-02-23T21:11:41.291Z,10.57
2023-02-23T21:14:53.959Z,11.05
2023-02-23T21:18:06.561Z,10.68
2023-02-23T21:21:19.474Z,9.93
2023-02-23T21:24:34.763Z,10.10
2023-02-23T21:27:48.176Z,10.82
2023-02-23T21:31:00.543Z,10.68
2023-02-23T21:34:15.403Z,10.75
2023-02-23T21:37:27.911Z,10.65
2023-02-23T21:40:42.401Z,11.02
2023-02-23T21:43:54.772Z,11.48
2023-02-23T21:47:07.523Z,11.07
2023-02-23T21:50:20.163Z,11.90
2023-02-23T21:53:33.097Z,11.63
2023-02-23T21:56:45.378Z,11.27
2023-02-23T21:59:58.193Z,11.55
2023-02-23T22:03:10.628Z,12.02
2023-02-23T22:06:28.319Z,11.05
2023-02-23T22:09:40.715Z,11.35
2023-02-23T22:12:57.005Z,11.23
2023-02-23T22:16:09.559Z,10.77
2023-02-23T22:19:22.229Z,11.32
2023-02-23T22:22:36.270Z,10.75
2023-02-23T22:25:48.988Z,10.43
2023-02-23T22:29:01.439Z,10.20
2023-02-23T22:32:14.319Z,11.40
2023-02-23T22:35:26.752Z,10.50
2023-02-23T22:38:40.516Z,10.55
2023-02-23T22:41:52.904Z,9.85
2023-02-23T22:45:06.227Z,10.63
2023-02-23T22:48:18.520Z,9.90
2023-02-23T22:51:31.160Z,10.75
2023-02-23T22:54:45.635Z,10.73
2023-02-23T22:57:59.912Z,10.25
2023-02-23T23:01:12.391Z,10.63
2023-02-23T23:04:25.901Z,10.70
2023-02-23T23:07:38.273Z,10.70
2023-02-23T23:10:51.033Z,10.40
2023-02-23T23:14:06.953Z,10.98
2023-02-23T23:17:20.392Z,10.18
2023-02-23T23:20:32.748Z,10.38
2023-02-23T23:23:45.440Z,10.75
2023-02-23T23:27:00.275Z,9.77
2023-02-23T23:30:13.367Z,9.50
2023-02-23T23:33:26.982Z,9.75
2023-02-23T23:36:43.073Z,10.07
2023-02-23T23:39:59.317Z,9.73
2023-02-23T23:43:12.272Z,9.87
2023-02-23T23:46:26.271Z,10.27
2023-02-23T23:49:39.188Z,10.13
2023-02-23T23:52:51.811Z,9.85
2023-02-23T23:56:06.409Z,9.98
2023-02-23T23:59:21.395Z,9.50
